Time;durP1;ratioP1;P1;durP2;ratioP2;P2;SDS_P1;SDS_P2;PMS_P1;PMS_P2;Temp;Humidity;BMP_temperature;BMP_pressure;BME280_temperature;BME280_humidity;BME280_pressure;Samples;Min_cycle;Max_cycle;Signal;HPM_P1;HPM_P2
2022/07/22 00:01:35;;;;;;;8.43;6.50;;;19.20;99.90;;;;;;5015146;28;20209;-35
2022/07/22 00:04:02;;;;;;;7.80;6.72;;;19.20;99.90;;;;;;5012030;28;20183;-36
2022/07/22 00:06:28;;;;;;;8.30;6.40;;;19.20;99.90;;;;;;5014118;28;20188;-35
2022/07/22 00:08:54;;;;;;;7.43;6.72;;;19.20;99.90;;;;;;5032261;28;20198;-35
2022/07/22 00:11:20;;;;;;;7.35;6.38;;;19.10;99.90;;;;;;5011781;28;20211;-36
2022/07/22 00:13:46;;;;;;;6.93;6.28;;;19.10;99.90;;;;;;5041569;28;20191;-35
2022/07/22 00:16:12;;;;;;;7.80;6.75;;;19.10;99.90;;;;;;5014313;28;20651;-35
2022/07/22 00:18:38;;;;;;;7.25;6.50;;;19.10;99.90;;;;;;5002860;28;20183;-36
2022/07/22 00:21:04;;;;;;;7.53;6.82;;;19.00;99.90;;;;;;5012018;28;20210;-36
2022/07/22 00:23:30;;;;;;;8.98;7.10;;;19.10;99.90;;;;;;5031506;28;20171;-35
2022/07/22 00:25:56;;;;;;;7.65;6.93;;;19.00;99.90;;;;;;5029710;28;20181;-37
2022/07/22 00:28:22;;;;;;;6.93;6.22;;;19.00;99.90;;;;;;5013331;28;20198;-35
2022/07/22 00:30:48;;;;;;;7.28;6.40;;;19.00;99.90;;;;;;4995080;28;20195;-35
2022/07/22 00:33:14;;;;;;;7.15;6.47;;;18.90;99.90;;;;;;5035395;28;20179;-35
2022/07/22 00:35:40;;;;;;;7.32;6.63;;;18.90;99.90;;;;;;5030926;28;20186;-35
2022/07/22 00:38:06;;;;;;;10.13;6.50;;;18.80;99.90;;;;;;5008631;28;20229;-37
2022/07/22 00:40:32;;;;;;;7.88;6.57;;;18.80;99.90;;;;;;5011221;28;20206;-37
2022/07/22 00:42:59;;;;;;;8.23;6.00;;;18.80;99.90;;;;;;5000829;28;20214;-35
2022/07/22 00:45:25;;;;;;;7.38;6.63;;;18.80;99.90;;;;;;5011715;28;20183;-36
2022/07/22 00:47:50;;;;;;;7.50;6.80;;;18.70;99.90;;;;;;5012196;28;20212;-35
2022/07/22 00:50:19;;;;;;;8.95;6.80;;;18.80;99.90;;;;;;5011229;28;20199;-35
2022/07/22 00:52:45;;;;;;;6.78;6.13;;;18.70;99.90;;;;;;5011865;28;20186;-35
2022/07/22 00:55:12;;;;;;;7.25;6.10;;;18.70;99.90;;;;;;5012601;28;20167;-35
2022/07/22 00:57:38;;;;;;;8.38;6.88;;;18.70;99.90;;;;;;5029883;28;20171;-35
2022/07/22 01:00:07;;;;;;;6.90;6.20;;;18.70;99.90;;;;;;5002601;28;20218;-35
2022/07/22 01:02:33;;;;;;;7.68;6.72;;;18.70;99.90;;;;;;5001637;28;20183;-35
2022/07/22 01:04:59;;;;;;;7.45;6.40;;;18.70;99.90;;;;;;5013813;28;20185;-35
2022/07/22 01:07:25;;;;;;;7.67;6.87;;;18.70;99.90;;;;;;5026982;28;20280;-36
2022/07/22 01:09:51;;;;;;;7.03;6.32;;;18.70;99.90;;;;;;4999584;28;20175;-37
2022/07/22 01:12:17;;;;;;;7.22;6.53;;;18.70;99.90;;;;;;5012076;28;20195;-35
2022/07/22 01:14:43;;;;;;;7.93;7.22;;;18.60;99.90;;;;;;5017603;28;20173;-35
2022/07/22 01:17:09;;;;;;;8.70;7.40;;;18.50;99.90;;;;;;5010990;28;20193;-38
2022/07/22 01:19:38;;;;;;;8.15;7.40;;;18.40;99.90;;;;;;5027194;28;20197;-38
2022/07/22 01:22:05;;;;;;;8.45;7.57;;;18.30;99.90;;;;;;4994176;28;20211;-36
2022/07/22 01:24:32;;;;;;;7.93;7.22;;;18.30;99.90;;;;;;5029999;28;20182;-33
2022/07/22 01:26:58;;;;;;;9.23;7.90;;;18.20;99.90;;;;;;5027347;28;20207;-33
2022/07/22 01:29:24;;;;;;;8.77;7.17;;;18.10;99.90;;;;;;5010655;28;20186;-36
2022/07/22 01:31:50;;;;;;;8.60;7.70;;;18.10;99.90;;;;;;5017554;28;20203;-34
2022/07/22 01:34:16;;;;;;;7.83;7.13;;;18.10;99.90;;;;;;4994086;28;20677;-35
2022/07/22 01:36:42;;;;;;;11.35;7.95;;;18.20;99.90;;;;;;5046448;28;20181;-36
2022/07/22 01:39:08;;;;;;;11.27;7.17;;;18.20;99.90;;;;;;4997063;28;20549;-34
2022/07/22 01:41:34;;;;;;;7.40;6.70;;;18.30;99.90;;;;;;5000949;28;20204;-35
2022/07/22 01:44:00;;;;;;;8.40;7.35;;;18.30;99.90;;;;;;4998037;28;20230;-33
2022/07/22 01:46:26;;;;;;;8.27;7.57;;;18.30;99.90;;;;;;5013129;28;20229;-34
2022/07/22 01:48:53;;;;;;;9.57;7.73;;;18.20;99.90;;;;;;5015887;28;20602;-35
2022/07/22 01:51:19;;;;;;;8.57;7.78;;;18.20;99.90;;;;;;5011314;28;20224;-37
2022/07/22 01:53:45;;;;;;;7.93;7.13;;;18.30;99.90;;;;;;5019763;28;20183;-35
2022/07/22 01:56:12;;;;;;;8.27;7.30;;;18.30;99.90;;;;;;4993869;28;20187;-36
2022/07/22 01:58:45;;;;;;;7.93;7.07;;;18.30;99.90;;;;;;5024113;28;20283;-35
2022/07/22 02:01:13;;;;;;;8.98;6.97;;;18.40;99.90;;;;;;5029950;28;20245;-36
2022/07/22 02:03:38;;;;;;;7.97;6.80;;;18.40;99.90;;;;;;5002416;28;20182;-37
2022/07/22 02:06:07;;;;;;;7.85;7.25;;;18.30;99.90;;;;;;5013995;28;20236;-34
2022/07/22 02:08:33;;;;;;;7.18;6.53;;;18.30;99.90;;;;;;5005842;28;20201;-34
2022/07/22 02:11:05;;;;;;;7.63;6.93;;;18.20;99.90;;;;;;5023679;28;20203;-34
2022/07/22 02:13:32;;;;;;;8.17;6.70;;;18.10;99.90;;;;;;5009220;28;20243;-35
2022/07/22 02:15:58;;;;;;;8.17;6.77;;;17.90;99.90;;;;;;5009749;28;20177;-33
2022/07/22 02:18:25;;;;;;;10.47;7.30;;;17.90;99.90;;;;;;5030692;28;20182;-34
2022/07/22 02:20:51;;;;;;;7.50;6.27;;;17.90;99.90;;;;;;5020617;28;20204;-34
2022/07/22 02:23:18;;;;;;;8.13;7.23;;;17.80;99.90;;;;;;5017092;28;20539;-35
2022/07/22 02:25:44;;;;;;;8.47;7.23;;;17.90;99.90;;;;;;5015258;28;20236;-35
2022/07/22 02:28:10;;;;;;;8.57;7.73;;;17.90;99.90;;;;;;5015535;28;20205;-35
2022/07/22 02:30:36;;;;;;;9.03;7.90;;;17.80;99.90;;;;;;5003113;28;20214;-35
2022/07/22 02:33:02;;;;;;;8.63;7.83;;;17.90;99.90;;;;;;5021828;28;20224;-38
2022/07/22 02:35:29;;;;;;;8.30;7.20;;;17.90;99.90;;;;;;5032996;28;20273;-36
2022/07/22 02:37:54;;;;;;;9.10;7.37;;;17.90;99.90;;;;;;5009043;28;20270;-35
2022/07/22 02:40:20;;;;;;;8.00;7.20;;;17.90;99.90;;;;;;5013789;28;20203;-35
2022/07/22 02:42:47;;;;;;;9.30;7.63;;;17.80;99.90;;;;;;5015712;28;20180;-35
2022/07/22 02:45:13;;;;;;;8.57;7.63;;;17.80;99.90;;;;;;5015705;28;20190;-36
2022/07/22 02:47:51;;;;;;;9.47;7.80;;;17.80;99.90;;;;;;5014247;28;20308;-36
2022/07/22 02:50:18;;;;;;;9.30;7.43;;;17.80;99.90;;;;;;5016722;28;20289;-34
2022/07/22 02:52:44;;;;;;;9.30;7.50;;;17.80;99.90;;;;;;5001605;28;20179;-35
2022/07/22 02:55:11;;;;;;;8.30;7.50;;;17.90;99.90;;;;;;4996826;28;20186;-34
2022/07/22 02:57:38;;;;;;;8.33;7.43;;;17.80;99.90;;;;;;5023031;28;20189;-34
2022/07/22 03:00:08;;;;;;;9.00;7.43;;;17.80;99.90;;;;;;5013249;28;20184;-34
2022/07/22 03:02:36;;;;;;;7.47;6.73;;;17.80;99.90;;;;;;5028599;28;20202;-34
2022/07/22 03:05:04;;;;;;;9.33;7.93;;;17.80;99.90;;;;;;5031725;28;20179;-34
2022/07/22 03:07:30;;;;;;;10.53;7.80;;;17.80;99.90;;;;;;5016401;28;20266;-35
2022/07/22 03:09:57;;;;;;;8.30;7.43;;;17.80;99.90;;;;;;5015012;28;20246;-35
2022/07/22 03:12:23;;;;;;;8.17;7.33;;;17.80;99.90;;;;;;5012974;28;20210;-35
2022/07/22 03:14:49;;;;;;;7.43;6.73;;;17.80;99.90;;;;;;5007673;28;20217;-36
2022/07/22 03:17:15;;;;;;;8.00;7.17;;;17.90;99.90;;;;;;4996216;28;20271;-39
2022/07/22 03:19:42;;;;;;;8.77;7.70;;;17.90;99.90;;;;;;5020100;28;20174;-35
2022/07/22 03:22:08;;;;;;;8.23;7.30;;;17.90;99.90;;;;;;5032730;28;20206;-35
2022/07/22 03:24:34;;;;;;;8.73;7.70;;;17.90;99.90;;;;;;5006876;28;20179;-36
2022/07/22 03:27:00;;;;;;;8.10;7.40;;;17.80;99.90;;;;;;5023594;28;20186;-35
2022/07/22 03:29:29;;;;;;;8.13;7.43;;;17.70;99.90;;;;;;5005432;28;20170;-36
2022/07/22 03:31:55;;;;;;;8.30;7.50;;;17.70;99.90;;;;;;5031814;28;20198;-35
2022/07/22 03:34:36;;;;;;;8.70;7.50;;;17.50;99.90;;;;;;5008502;28;20233;-34
2022/07/22 03:37:05;;;;;;;8.20;7.20;;;17.50;99.90;;;;;;5012194;28;20187;-36
2022/07/22 03:39:31;;;;;;;7.80;7.07;;;17.50;99.90;;;;;;5017824;28;20210;-34
2022/07/22 03:41:57;;;;;;;8.00;7.30;;;17.50;99.90;;;;;;5015689;28;20229;-34
2022/07/22 03:44:23;;;;;;;9.87;8.03;;;17.40;99.90;;;;;;5014703;28;20192;-35
2022/07/22 03:46:49;;;;;;;8.00;7.20;;;17.40;99.90;;;;;;5015031;28;20193;-37
2022/07/22 03:49:16;;;;;;;7.47;6.77;;;17.30;99.90;;;;;;5013494;28;20322;-38
2022/07/22 03:51:42;;;;;;;8.00;7.30;;;17.30;99.90;;;;;;5012273;28;20199;-37
2022/07/22 03:54:08;;;;;;;9.00;7.60;;;17.20;99.90;;;;;;5046718;28;20170;-35
2022/07/22 03:56:38;;;;;;;8.30;7.50;;;17.10;99.90;;;;;;5015909;28;20175;-35
2022/07/22 03:59:04;;;;;;;9.57;7.67;;;17.10;99.90;;;;;;5004798;28;20183;-34
2022/07/22 04:01:30;;;;;;;8.27;7.47;;;17.00;99.90;;;;;;5001157;28;20679;-36
2022/07/22 04:03:57;;;;;;;7.93;7.13;;;17.00;99.90;;;;;;5012510;28;20206;-36
2022/07/22 04:06:29;;;;;;;8.57;7.67;;;17.00;99.90;;;;;;5011579;28;20179;-36
2022/07/22 04:09:06;;;;;;;9.50;8.10;;;17.10;99.90;;;;;;5021132;28;20208;-35
2022/07/22 04:11:35;;;;;;;8.80;8.00;;;17.00;99.90;;;;;;5003585;28;20206;-35
2022/07/22 04:14:01;;;;;;;7.57;6.83;;;17.00;99.90;;;;;;4999533;28;20214;-35
2022/07/22 04:16:28;;;;;;;7.80;7.10;;;17.00;99.90;;;;;;4998068;28;20184;-35
2022/07/22 04:19:00;;;;;;;8.77;7.87;;;17.00;99.90;;;;;;5015885;28;20171;-35
2022/07/22 04:21:45;;;;;;;9.67;8.07;;;17.00;99.90;;;;;;5031466;28;20268;-35
2022/07/22 04:24:11;;;;;;;8.10;7.40;;;17.00;99.90;;;;;;5014509;28;20179;-35
2022/07/22 04:26:37;;;;;;;9.10;8.20;;;17.00;99.90;;;;;;5010540;28;20183;-35
2022/07/22 04:29:05;;;;;;;10.80;8.27;;;17.10;99.90;;;;;;5027181;28;20207;-35
2022/07/22 04:31:32;;;;;;;8.20;7.43;;;17.10;99.90;;;;;;5029223;28;20284;-37
2022/07/22 04:34:04;;;;;;;10.67;8.77;;;17.10;99.90;;;;;;5030844;28;20178;-35
2022/07/22 04:36:30;;;;;;;8.97;8.07;;;17.10;99.90;;;;;;5012136;28;20238;-35
2022/07/22 04:38:56;;;;;;;9.07;8.17;;;17.20;99.90;;;;;;5014584;28;20186;-35
2022/07/22 04:41:23;;;;;;;8.73;8.00;;;17.20;99.90;;;;;;5000337;28;20207;-36
2022/07/22 04:43:50;;;;;;;11.30;8.63;;;17.30;99.90;;;;;;5010431;28;20183;-35
2022/07/22 04:46:16;;;;;;;10.07;8.13;;;17.30;99.90;;;;;;5011503;28;20187;-36
2022/07/22 04:48:43;;;;;;;8.33;7.60;;;17.30;99.90;;;;;;5014050;28;20206;-35
2022/07/22 04:51:09;;;;;;;9.93;8.63;;;17.30;99.90;;;;;;5014302;28;20210;-35
2022/07/22 04:53:36;;;;;;;10.10;8.30;;;17.30;99.90;;;;;;5030245;28;20665;-35
2022/07/22 04:56:02;;;;;;;9.17;8.37;;;17.30;99.90;;;;;;5019640;28;20175;-37
2022/07/22 04:58:29;;;;;;;9.40;8.50;;;17.30;99.90;;;;;;5010477;28;20175;-35
2022/07/22 05:00:55;;;;;;;11.47;7.87;;;17.30;99.90;;;;;;5018470;28;20224;-36
2022/07/22 05:03:28;;;;;;;8.37;7.57;;;17.30;99.90;;;;;;5006102;28;20528;-35
2022/07/22 05:05:54;;;;;;;9.23;8.33;;;17.30;99.90;;;;;;5002007;28;20186;-35
2022/07/22 05:08:30;;;;;;;9.80;8.43;;;17.40;99.90;;;;;;5012922;28;20205;-35
2022/07/22 05:10:56;;;;;;;9.27;8.27;;;17.50;99.90;;;;;;5024429;28;20203;-36
2022/07/22 05:13:23;;;;;;;9.20;8.20;;;17.50;99.90;;;;;;5010388;28;20225;-35
2022/07/22 05:15:49;;;;;;;9.20;8.27;;;17.50;99.90;;;;;;4993707;28;20270;-36
2022/07/22 05:18:16;;;;;;;10.17;8.83;;;17.50;99.90;;;;;;5010359;28;20187;-37
2022/07/22 05:20:42;;;;;;;10.90;9.37;;;17.50;99.90;;;;;;4994806;28;20211;-36
2022/07/22 05:23:08;;;;;;;10.53;9.03;;;17.60;99.90;;;;;;5010374;28;20180;-37
2022/07/22 05:25:37;;;;;;;9.03;8.13;;;17.60;99.90;;;;;;5025200;28;20211;-38
2022/07/22 05:28:04;;;;;;;11.67;9.57;;;17.70;99.90;;;;;;5013406;28;20198;-36
2022/07/22 05:30:36;;;;;;;9.93;8.93;;;17.70;99.90;;;;;;5028112;28;20194;-36
2022/07/22 05:33:04;;;;;;;9.93;8.93;;;17.80;99.90;;;;;;5014234;28;20178;-36
2022/07/22 05:35:48;;;;;;;10.70;9.60;;;17.90;99.90;;;;;;5014813;28;20193;-36
2022/07/22 05:38:14;;;;;;;9.90;8.90;;;18.00;99.90;;;;;;4993457;28;20179;-35
2022/07/22 05:40:41;;;;;;;10.07;8.60;;;18.10;99.90;;;;;;4996340;28;20256;-36
2022/07/22 05:43:07;;;;;;;10.63;9.17;;;18.20;99.90;;;;;;5001471;28;20290;-36
2022/07/22 05:45:33;;;;;;;10.27;8.63;;;18.20;99.90;;;;;;5014298;28;20190;-36
2022/07/22 05:47:59;;;;;;;9.95;8.30;;;18.30;99.90;;;;;;5030645;28;20275;-36
2022/07/22 05:50:26;;;;;;;10.05;9.13;;;18.40;99.90;;;;;;4994483;28;20234;-36
2022/07/22 05:52:52;;;;;;;11.13;9.63;;;18.50;99.90;;;;;;4993838;28;20262;-36
2022/07/22 05:55:18;;;;;;;11.13;9.18;;;18.70;99.90;;;;;;4993286;28;20211;-36
2022/07/22 05:57:46;;;;;;;10.25;9.05;;;18.80;99.90;;;;;;4993668;28;20280;-36
2022/07/22 06:00:12;;;;;;;9.32;8.43;;;19.00;99.90;;;;;;4994028;28;20266;-34
2022/07/22 06:02:42;;;;;;;10.48;9.45;;;19.20;99.90;;;;;;4993985;28;20183;-34
2022/07/22 06:05:13;;;;;;;9.57;8.68;;;19.30;99.90;;;;;;5009708;28;20187;-35
2022/07/22 06:07:39;;;;;;;11.13;9.07;;;19.40;99.90;;;;;;5009625;28;20214;-34
2022/07/22 06:10:08;;;;;;;10.57;8.73;;;19.60;99.90;;;;;;4993527;28;20233;-33
2022/07/22 06:12:33;;;;;;;10.57;8.90;;;19.90;99.90;;;;;;4989742;28;20724;-33
2022/07/22 06:14:59;;;;;;;10.32;9.32;;;19.90;99.90;;;;;;4973829;28;20271;-34
2022/07/22 06:17:25;;;;;;;10.07;9.02;;;20.00;99.90;;;;;;4973972;28;20184;-36
2022/07/22 06:19:52;;;;;;;9.35;8.40;;;20.10;99.90;;;;;;4990201;28;20188;-34
2022/07/22 06:22:18;;;;;;;9.25;8.43;;;20.30;99.90;;;;;;4973885;28;20231;-34
2022/07/22 06:24:45;;;;;;;9.70;8.80;;;20.40;99.90;;;;;;5005900;28;20176;-34
2022/07/22 06:27:12;;;;;;;9.13;8.23;;;20.40;99.90;;;;;;4974009;28;20218;-35
2022/07/22 06:29:40;;;;;;;10.68;8.35;;;20.60;99.90;;;;;;4973381;28;20176;-34
2022/07/22 06:32:07;;;;;;;9.82;8.85;;;20.70;99.90;;;;;;4973714;28;20223;-34
2022/07/22 06:34:34;;;;;;;11.73;9.48;;;20.90;99.90;;;;;;5005754;28;20172;-34
2022/07/22 06:37:03;;;;;;;10.77;9.20;;;21.00;99.90;;;;;;4974101;28;20180;-35
2022/07/22 06:39:29;;;;;;;10.35;9.13;;;21.00;99.90;;;;;;5005944;28;20192;-34
2022/07/22 06:42:14;;;;;;;11.27;8.43;;;21.10;99.90;;;;;;4991260;28;20218;-33
2022/07/22 06:44:58;;;;;;;10.80;9.70;;;21.20;99.90;;;;;;5009534;28;20203;-34
2022/07/22 06:47:35;;;;;;;11.10;9.57;;;21.30;99.90;;;;;;4994279;28;20215;-34
2022/07/22 06:50:07;;;;;;;10.35;9.35;;;21.30;99.90;;;;;;4993590;28;20220;-34
2022/07/22 06:52:33;;;;;;;9.85;8.95;;;21.40;99.90;;;;;;4996780;28;20186;-35
2022/07/22 06:55:00;;;;;;;10.93;9.80;;;21.50;99.90;;;;;;4996609;28;20184;-34
2022/07/22 06:57:32;;;;;;;14.27;9.35;;;21.70;99.90;;;;;;4997772;28;20186;-33
2022/07/22 06:59:58;;;;;;;10.15;9.18;;;21.80;99.90;;;;;;4996281;28;20183;-34
2022/07/22 07:02:25;;;;;;;9.88;8.98;;;21.90;99.90;;;;;;4996977;28;20191;-34
2022/07/22 07:04:51;;;;;;;10.30;8.95;;;22.10;99.90;;;;;;5012565;28;20326;-34
2022/07/22 07:07:17;;;;;;;10.20;9.07;;;22.30;99.90;;;;;;4996921;28;20183;-34
2022/07/22 07:09:52;;;;;;;10.10;9.15;;;22.40;99.90;;;;;;5012743;28;20183;-35
2022/07/22 07:12:25;;;;;;;9.32;8.43;;;22.60;99.90;;;;;;4996709;28;20270;-34
2022/07/22 07:15:14;;;;;;;10.82;9.27;;;22.80;99.90;;;;;;5009791;28;20298;-39
2022/07/22 07:17:40;;;;;;;10.20;8.50;;;22.80;99.90;;;;;;4979836;28;20176;-37
2022/07/22 07:20:10;;;;;;;10.00;9.13;;;22.80;99.90;;;;;;4980321;28;20187;-37
2022/07/22 07:22:36;;;;;;;9.88;8.88;;;22.90;99.90;;;;;;4987260;28;20184;-37
2022/07/22 07:25:07;;;;;;;10.95;9.68;;;23.10;99.90;;;;;;4995890;28;20183;-38
2022/07/22 07:27:34;;;;;;;9.40;8.48;;;23.20;99.90;;;;;;5009035;28;20204;-36
2022/07/22 07:30:01;;;;;;;11.02;10.02;;;23.30;99.90;;;;;;4992899;28;20183;-36
2022/07/22 07:32:27;;;;;;;9.98;9.05;;;23.30;99.90;;;;;;4992823;28;20176;-37
2022/07/22 07:34:53;;;;;;;10.18;9.18;;;23.50;99.90;;;;;;4980445;28;20207;-37
2022/07/22 07:37:19;;;;;;;9.90;8.32;;;23.60;99.90;;;;;;4996073;28;20175;-37
2022/07/22 07:39:45;;;;;;;9.82;8.88;;;23.80;99.90;;;;;;4993812;28;20739;-36
2022/07/22 07:42:11;;;;;;;12.25;9.52;;;23.90;99.90;;;;;;4995946;28;20245;-36
2022/07/22 07:44:37;;;;;;;10.18;8.68;;;23.70;99.90;;;;;;4995034;28;20191;-37
2022/07/22 07:47:03;;;;;;;9.25;8.35;;;23.90;99.90;;;;;;4995762;28;20202;-37
2022/07/22 07:49:29;;;;;;;9.73;8.77;;;24.10;99.90;;;;;;4994769;28;20211;-37
2022/07/22 07:51:55;;;;;;;10.15;9.23;;;24.10;99.90;;;;;;4995643;28;20286;-37
2022/07/22 07:54:21;;;;;;;9.45;8.55;;;24.10;99.90;;;;;;5011437;28;20179;-37
2022/07/22 07:56:47;;;;;;;10.30;9.20;;;24.00;99.90;;;;;;4977766;28;20216;-38
2022/07/22 07:59:16;;;;;;;10.52;9.38;;;24.10;99.90;;;;;;4976270;28;20191;-36
2022/07/22 08:01:42;;;;;;;9.68;8.55;;;24.10;99.90;;;;;;5005164;28;20207;-36
2022/07/22 08:04:08;;;;;;;9.25;8.45;;;24.30;99.90;;;;;;4976272;28;20210;-36
2022/07/22 08:06:34;;;;;;;8.93;8.07;;;24.30;99.90;;;;;;4975748;28;20183;-36
2022/07/22 08:09:00;;;;;;;8.65;7.85;;;24.50;99.90;;;;;;4975782;28;20216;-36
2022/07/22 08:11:35;;;;;;;8.73;7.93;;;24.50;99.90;;;;;;4977072;28;20207;-37
2022/07/22 08:14:22;;;;;;;8.75;7.82;;;24.60;99.90;;;;;;4977680;28;20187;-37
2022/07/22 08:17:07;;;;;;;8.18;7.38;;;24.70;99.90;;;;;;4993319;28;20190;-36
2022/07/22 08:19:33;;;;;;;8.07;7.43;;;24.90;99.90;;;;;;4993992;28;20175;-37
2022/07/22 08:21:59;;;;;;;8.35;7.55;;;25.10;99.90;;;;;;4975494;28;20203;-37
2022/07/22 08:24:29;;;;;;;8.38;7.20;;;25.40;99.90;;;;;;4976577;28;20188;-37
2022/07/22 08:26:59;;;;;;;8.55;7.70;;;25.60;99.90;;;;;;5001381;28;20221;-37
2022/07/22 08:29:25;;;;;;;8.10;7.30;;;25.70;99.90;;;;;;4977138;28;20215;-37
2022/07/22 08:31:52;;;;;;;8.43;7.55;;;25.90;99.90;;;;;;4990344;28;20212;-36
2022/07/22 08:34:20;;;;;;;7.65;7.05;;;26.00;99.90;;;;;;4974938;28;20190;-36
2022/07/22 08:36:46;;;;;;;7.68;6.97;;;26.30;99.90;;;;;;4975228;28;20176;-39
2022/07/22 08:39:12;;;;;;;7.45;6.75;;;26.40;99.90;;;;;;4975494;28;20188;-37
2022/07/22 08:41:39;;;;;;;7.80;6.78;;;26.70;99.90;;;;;;4975050;28;20208;-37
2022/07/22 08:44:07;;;;;;;9.98;6.93;;;26.70;99.90;;;;;;4990740;28;20198;-38
2022/07/22 08:46:33;;;;;;;8.23;7.43;;;26.90;99.90;;;;;;5010809;28;20229;-37
2022/07/22 08:49:18;;;;;;;7.63;6.93;;;27.00;99.90;;;;;;5011233;28;20313;-37
2022/07/22 08:52:04;;;;;;;7.90;7.03;;;27.10;99.90;;;;;;5010658;28;20257;-40
2022/07/22 08:54:36;;;;;;;6.82;6.20;;;27.10;99.90;;;;;;5010420;28;20229;-37
2022/07/22 08:57:03;;;;;;;8.48;7.68;;;27.30;99.90;;;;;;5011278;28;20179;-37
2022/07/22 08:59:30;;;;;;;7.80;7.15;;;27.50;99.90;;;;;;5011378;28;20518;-37
2022/07/22 09:02:11;;;;;;;8.07;7.22;;;27.60;99.90;;;;;;4994894;28;20199;-37
2022/07/22 09:04:59;;;;;;;7.05;6.45;;;27.40;99.90;;;;;;4994860;28;20185;-37
2022/07/22 09:07:28;;;;;;;7.25;6.45;;;27.70;99.90;;;;;;4994248;28;20186;-39
2022/07/22 09:09:59;;;;;;;8.65;7.85;;;27.70;99.90;;;;;;4994387;28;20186;-36
2022/07/22 09:12:58;;;;;;;7.38;6.78;;;27.90;99.90;;;;;;5000712;28;20198;-37
2022/07/22 09:15:59;;;;;;;7.85;6.40;;;28.10;99.90;;;;;;4978345;28;20275;-37
2022/07/22 09:18:51;;;;;;;7.25;6.43;;;28.30;99.90;;;;;;5009101;28;20266;-37
2022/07/22 09:21:37;;;;;;;7.13;6.47;;;28.60;99.90;;;;;;5011716;28;20210;-37
2022/07/22 09:24:29;;;;;;;7.65;6.95;;;28.80;99.90;;;;;;4995175;28;20193;-39
2022/07/22 09:27:08;;;;;;;7.35;6.72;;;29.00;99.90;;;;;;4995565;28;20282;-37
2022/07/22 09:29:53;;;;;;;8.18;7.47;;;29.10;99.90;;;;;;4996070;28;20191;-38
2022/07/22 09:32:22;;;;;;;6.78;6.22;;;29.20;99.90;;;;;;5010146;28;20265;-39
2022/07/22 09:35:03;;;;;;;7.47;6.78;;;29.10;99.90;;;;;;5010167;28;20179;-38
2022/07/22 09:37:32;;;;;;;7.55;6.85;;;29.20;99.90;;;;;;4991091;28;20183;-39
2022/07/22 09:40:16;;;;;;;9.60;6.85;;;29.40;99.90;;;;;;4973860;28;20184;-37
2022/07/22 09:42:47;;;;;;;7.65;6.47;;;29.50;99.90;;;;;;4994978;28;20281;-39
2022/07/22 09:45:13;;;;;;;7.82;6.70;;;29.60;99.90;;;;;;4993455;28;20221;-36
2022/07/22 09:47:45;;;;;;;7.03;6.43;;;29.80;99.90;;;;;;4994264;28;20237;-39
2022/07/22 09:50:31;;;;;;;7.47;6.88;;;30.00;99.90;;;;;;5010708;28;20210;-37
2022/07/22 09:53:19;;;;;;;7.30;6.55;;;30.00;99.90;;;;;;5011075;28;20198;-39
2022/07/22 09:55:53;;;;;;;6.78;6.20;;;30.10;99.90;;;;;;4994778;28;20175;-40
2022/07/22 09:58:20;;;;;;;7.25;6.60;;;30.20;99.90;;;;;;4994056;28;20616;-38
2022/07/22 10:00:47;;;;;;;7.63;7.03;;;30.40;99.90;;;;;;4993443;28;20206;-37
2022/07/22 10:03:29;;;;;;;8.05;7.20;;;30.40;99.90;;;;;;5009934;28;20686;-39
2022/07/22 10:05:57;;;;;;;7.25;6.60;;;30.40;99.90;;;;;;4993466;28;20245;-38
2022/07/22 10:08:26;;;;;;;7.22;6.63;;;30.60;99.90;;;;;;4993774;28;20210;-37
2022/07/22 10:10:53;;;;;;;9.15;6.80;;;30.30;99.90;;;;;;4993873;28;20210;-37
2022/07/22 10:13:19;;;;;;;7.90;7.10;;;30.50;99.90;;;;;;4993545;28;20193;-41
2022/07/22 10:15:47;;;;;;;7.55;6.85;;;30.70;99.90;;;;;;4993417;28;20187;-38
2022/07/22 10:18:18;;;;;;;9.02;7.22;;;30.50;99.90;;;;;;4994119;28;20192;-40
2022/07/22 10:20:47;;;;;;;7.78;6.80;;;30.40;99.90;;;;;;4994075;28;20270;-39
2022/07/22 10:23:14;;;;;;;7.43;6.72;;;30.30;99.90;;;;;;4994331;28;20184;-39
2022/07/22 10:25:59;;;;;;;7.45;6.68;;;30.50;99.90;;;;;;4996341;28;20187;-37
2022/07/22 10:28:29;;;;;;;7.80;7.03;;;30.80;99.90;;;;;;4997496;28;20203;-37
2022/07/22 10:31:18;;;;;;;7.68;6.93;;;30.70;99.90;;;;;;4998085;28;20432;-41
2022/07/22 10:33:45;;;;;;;7.30;6.60;;;30.70;99.90;;;;;;5014301;28;20168;-38
2022/07/22 10:36:12;;;;;;;9.10;6.82;;;30.70;99.90;;;;;;5013833;28;20184;-38
2022/07/22 10:39:01;;;;;;;7.95;6.85;;;30.90;99.90;;;;;;4993121;28;20191;-38
2022/07/22 10:41:36;;;;;;;7.30;6.70;;;31.20;99.90;;;;;;5004346;28;20207;-39
2022/07/22 10:44:02;;;;;;;7.03;6.43;;;31.10;99.90;;;;;;4991719;28;20179;-37
2022/07/22 10:46:47;;;;;;;7.10;6.35;;;31.40;99.30;;;;;;4996833;28;20278;-41
2022/07/22 10:49:16;;;;;;;6.32;5.82;;;31.50;99.90;;;;;;4997053;28;20249;-38
2022/07/22 10:52:09;;;;;;;7.38;6.68;;;31.60;99.60;;;;;;5013672;28;20206;-37
2022/07/22 10:55:13;;;;;;;7.05;6.35;;;31.80;99.30;;;;;;4997027;28;20171;-40
2022/07/22 10:57:39;;;;;;;7.35;6.65;;;31.40;99.60;;;;;;5000923;28;20184;-38
2022/07/22 11:00:06;;;;;;;7.22;6.40;;;31.60;99.70;;;;;;5003697;28;20255;-37
2022/07/22 11:02:35;;;;;;;7.40;6.70;;;31.80;99.50;;;;;;5003722;28;20198;-38
2022/07/22 11:05:02;;;;;;;7.28;6.57;;;31.90;99.80;;;;;;4996927;28;20188;-37
2022/07/22 11:07:31;;;;;;;7.82;6.90;;;32.10;99.60;;;;;;4996786;28;20196;-37
2022/07/22 11:10:14;;;;;;;7.25;6.55;;;32.20;98.50;;;;;;4990463;28;20265;-40
2022/07/22 11:12:41;;;;;;;7.25;6.53;;;32.30;99.40;;;;;;5003556;28;20180;-38
2022/07/22 11:15:08;;;;;;;6.88;6.28;;;32.50;98.90;;;;;;4982041;28;20176;-39
2022/07/22 11:17:35;;;;;;;6.85;6.22;;;32.60;97.10;;;;;;4985177;28;20671;-38
2022/07/22 11:20:07;;;;;;;7.28;6.18;;;32.50;97.30;;;;;;4994605;28;20187;-37
2022/07/22 11:22:33;;;;;;;6.88;6.22;;;32.70;97.30;;;;;;4995186;28;20175;-38
2022/07/22 11:25:01;;;;;;;6.88;6.28;;;32.40;96.90;;;;;;5002023;28;20191;-39
2022/07/22 11:27:28;;;;;;;7.65;6.85;;;32.50;96.70;;;;;;4999683;28;20191;-36
2022/07/22 11:29:57;;;;;;;7.13;6.63;;;32.60;96.60;;;;;;5003633;28;20202;-36
2022/07/22 11:32:30;;;;;;;6.80;6.28;;;32.50;98.10;;;;;;4994254;28;20241;-35
2022/07/22 11:35:01;;;;;;;6.65;6.15;;;32.50;97.60;;;;;;5008363;28;20182;-35
2022/07/22 11:37:29;;;;;;;8.35;6.85;;;32.80;97.70;;;;;;5008284;28;20437;-38
2022/07/22 11:40:01;;;;;;;7.53;6.78;;;32.80;97.30;;;;;;4993397;28;20172;-37
2022/07/22 11:42:32;;;;;;;7.40;6.43;;;33.10;97.10;;;;;;4993295;28;20191;-39
2022/07/22 11:45:01;;;;;;;7.20;6.55;;;33.00;95.70;;;;;;4997064;28;20214;-36
2022/07/22 11:47:27;;;;;;;6.80;6.10;;;33.20;96.00;;;;;;4991947;28;20240;-38
2022/07/22 11:49:53;;;;;;;7.20;6.47;;;33.20;96.80;;;;;;4994208;28;20200;-39
2022/07/22 11:52:19;;;;;;;7.80;6.28;;;33.30;95.90;;;;;;4989562;28;20227;-36
2022/07/22 11:54:46;;;;;;;7.18;6.47;;;33.10;95.00;;;;;;4986593;28;20180;-37
2022/07/22 11:57:14;;;;;;;7.20;6.50;;;32.90;95.10;;;;;;4985039;28;20176;-35
2022/07/22 11:59:40;;;;;;;7.07;6.38;;;33.10;95.10;;;;;;4989801;28;20179;-36
2022/07/22 12:02:09;;;;;;;6.15;5.75;;;33.30;94.50;;;;;;4994546;28;20691;-43
2022/07/22 12:04:36;;;;;;;6.50;5.95;;;33.20;94.90;;;;;;4992546;28;20184;-37
2022/07/22 12:07:02;;;;;;;6.50;5.95;;;33.50;94.90;;;;;;4992366;28;20175;-36
2022/07/22 12:09:34;;;;;;;7.10;6.45;;;33.50;94.70;;;;;;4998400;28;20215;-35
2022/07/22 12:12:01;;;;;;;6.90;6.30;;;33.40;95.50;;;;;;5003277;28;20210;-37
2022/07/22 12:14:32;;;;;;;6.32;5.72;;;33.60;94.70;;;;;;4991359;28;20176;-38
2022/07/22 12:17:11;;;;;;;6.25;5.72;;;33.90;94.20;;;;;;4994399;28;20180;-38
2022/07/22 12:19:40;;;;;;;6.68;6.07;;;34.10;93.40;;;;;;5021177;28;20178;-38
2022/07/22 12:22:22;;;;;;;6.55;5.97;;;34.00;93.60;;;;;;5012819;28;20709;-36
2022/07/22 12:25:02;;;;;;;7.07;6.43;;;34.00;95.20;;;;;;5007306;28;20175;-37
2022/07/22 12:27:33;;;;;;;6.63;6.03;;;34.00;92.80;;;;;;5017819;28;20186;-36
2022/07/22 12:29:59;;;;;;;6.30;5.72;;;34.10;92.90;;;;;;5011049;28;20178;-38
2022/07/22 12:32:29;;;;;;;6.55;5.97;;;34.30;92.70;;;;;;5018590;28;20179;-37
2022/07/22 12:34:59;;;;;;;6.55;5.95;;;34.20;92.00;;;;;;4989041;28;20226;-36
2022/07/22 12:37:27;;;;;;;6.68;6.07;;;34.10;92.00;;;;;;4988237;28;20176;-37
2022/07/22 12:40:21;;;;;;;6.72;6.22;;;34.30;92.80;;;;;;4996753;28;20186;-38
2022/07/22 12:43:09;;;;;;;6.68;6.07;;;34.50;93.00;;;;;;5008128;28;20210;-40
2022/07/22 12:45:42;;;;;;;6.80;6.10;;;34.60;93.40;;;;;;5020554;28;20236;-36
2022/07/22 12:48:13;;;;;;;7.72;6.30;;;34.80;92.60;;;;;;5035001;28;20268;-37
2022/07/22 12:50:41;;;;;;;6.78;6.15;;;34.50;91.30;;;;;;5002403;28;20195;-38
2022/07/22 12:53:13;;;;;;;6.65;6.05;;;34.40;91.10;;;;;;4998989;28;20274;-38
2022/07/22 12:55:41;;;;;;;6.28;5.70;;;34.60;92.00;;;;;;4990228;28;20203;-38
2022/07/22 12:58:07;;;;;;;7.10;6.60;;;34.60;93.00;;;;;;4997207;28;20261;-37